sensor_id;sensor_type;location;lat;lon;timestamp;pressure;altitude;pressure_sealevel;temperature;humidity
70141;BME280;57508;43.086;0.136;2022-10-15T05:20:17;95720.91;;;18.64;43.54
70141;BME280;57508;43.086;0.136;2022-10-15T05:22:43;95726.19;;;18.89;42.66
70141;BME280;57508;43.086;0.136;2022-10-15T05:25:08;95719.38;;;18.63;43.25
70141;BME280;57508;43.086;0.136;2022-10-15T05:27:34;95737.81;;;18.40;43.74
70141;BME280;57508;43.086;0.136;2022-10-15T05:30:04;95728.69;;;17.91;44.47
70141;BME280;57508;43.086;0.136;2022-10-15T05:32:37;95716.50;;;18.44;43.25
70141;BME280;57508;43.086;0.136;2022-10-15T05:35:03;95714.50;;;18.53;42.99
70141;BME280;57508;43.086;0.136;2022-10-15T05:37:28;95713.28;;;18.50;42.98
70141;BME280;57508;43.086;0.136;2022-10-15T05:39:54;95710.31;;;18.97;42.17
70141;BME280;57508;43.086;0.136;2022-10-15T05:42:19;95710.47;;;18.88;42.27
70141;BME280;57508;43.086;0.136;2022-10-15T05:44:45;95709.56;;;18.96;41.82
70141;BME280;57508;43.086;0.136;2022-10-15T05:47:11;95713.34;;;18.66;42.25
70141;BME280;57508;43.086;0.136;2022-10-15T05:49:40;95713.00;;;18.68;42.36
70141;BME280;57508;43.086;0.136;2022-10-15T05:52:08;95710.19;;;18.77;42.26
70141;BME280;57508;43.086;0.136;2022-10-15T05:54:33;95699.63;;;18.68;42.05
70141;BME280;57508;43.086;0.136;2022-10-15T05:56:59;95704.25;;;18.84;41.79
70141;BME280;57508;43.086;0.136;2022-10-15T05:59:24;95705.25;;;18.79;41.89
70141;BME280;57508;43.086;0.136;2022-10-15T06:01:50;95703.38;;;18.38;42.76
70141;BME280;57508;43.086;0.136;2022-10-15T06:04:15;95707.06;;;18.75;41.85
70141;BME280;57508;43.086;0.136;2022-10-15T06:06:41;95704.78;;;18.89;41.34
70141;BME280;57508;43.086;0.136;2022-10-15T06:09:09;95705.03;;;18.43;42.18
70141;BME280;57508;43.086;0.136;2022-10-15T06:11:36;95706.97;;;19.12;40.94
70141;BME280;57508;43.086;0.136;2022-10-15T06:14:04;95712.72;;;18.86;41.44
70141;BME280;57508;43.086;0.136;2022-10-15T06:16:30;95709.19;;;18.82;41.38
70141;BME280;57508;43.086;0.136;2022-10-15T06:19:01;95707.19;;;18.37;42.15
70141;BME280;57508;43.086;0.136;2022-10-15T06:21:32;95717.53;;;18.26;42.91
70141;BME280;57508;43.086;0.136;2022-10-15T06:23:57;95716.91;;;18.58;42.15
70141;BME280;57508;43.086;0.136;2022-10-15T06:26:22;95709.34;;;18.60;41.79
70141;BME280;57508;43.086;0.136;2022-10-15T06:28:48;95715.38;;;19.27;40.73
70141;BME280;57508;43.086;0.136;2022-10-15T06:31:13;95709.66;;;19.00;40.43
70141;BME280;57508;43.086;0.136;2022-10-15T06:33:39;95710.13;;;18.89;41.04
70141;BME280;57508;43.086;0.136;2022-10-15T06:36:06;95706.50;;;19.55;39.71
70141;BME280;57508;43.086;0.136;2022-10-15T06:38:33;95703.47;;;19.40;40.52
70141;BME280;57508;43.086;0.136;2022-10-15T06:40:59;95709.19;;;18.82;40.85
70141;BME280;57508;43.086;0.136;2022-10-15T06:43:24;95722.56;;;18.15;42.35
70141;BME280;57508;43.086;0.136;2022-10-15T06:45:50;95705.56;;;19.19;40.84
70141;BME280;57508;43.086;0.136;2022-10-15T06:48:16;95708.72;;;19.85;39.58
70141;BME280;57508;43.086;0.136;2022-10-15T06:50:41;95704.72;;;20.27;38.80
70141;BME280;57508;43.086;0.136;2022-10-15T06:53:06;95704.75;;;20.47;38.46
70141;BME280;57508;43.086;0.136;2022-10-15T06:55:33;95706.47;;;20.20;39.05
70141;BME280;57508;43.086;0.136;2022-10-15T06:57:58;95696.53;;;20.20;39.04
70141;BME280;57508;43.086;0.136;2022-10-15T07:00:25;95717.22;;;19.55;39.16
70141;BME280;57508;43.086;0.136;2022-10-15T07:02:51;95704.66;;;19.91;39.14
70141;BME280;57508;43.086;0.136;2022-10-15T07:05:17;95702.81;;;20.28;37.97
70141;BME280;57508;43.086;0.136;2022-10-15T07:07:53;95704.69;;;20.43;37.49
70141;BME280;57508;43.086;0.136;2022-10-15T07:10:19;95715.50;;;20.87;37.37
70141;BME280;57508;43.086;0.136;2022-10-15T07:12:45;95703.50;;;21.67;35.28
70141;BME280;57508;43.086;0.136;2022-10-15T07:15:11;95703.94;;;22.19;33.42
70141;BME280;57508;43.086;0.136;2022-10-15T07:17:36;95702.59;;;22.94;32.42
70141;BME280;57508;43.086;0.136;2022-10-15T07:20:04;95708.09;;;23.89;31.23
70141;BME280;57508;43.086;0.136;2022-10-15T07:22:29;95699.38;;;24.84;28.08
70141;BME280;57508;43.086;0.136;2022-10-15T07:24:55;95706.16;;;26.04;30.23
70141;BME280;57508;43.086;0.136;2022-10-15T07:27:20;95711.06;;;26.60;28.89
70141;BME280;57508;43.086;0.136;2022-10-15T07:29:45;95700.63;;;27.44;28.61
70141;BME280;57508;43.086;0.136;2022-10-15T07:32:11;95709.84;;;28.03;28.21
70141;BME280;57508;43.086;0.136;2022-10-15T07:34:36;95704.63;;;27.82;26.87
70141;BME280;57508;43.086;0.136;2022-10-15T07:37:02;95703.13;;;27.17;26.93
70141;BME280;57508;43.086;0.136;2022-10-15T07:39:27;95712.81;;;27.74;25.96
70141;BME280;57508;43.086;0.136;2022-10-15T07:41:53;95706.78;;;28.01;26.01
70141;BME280;57508;43.086;0.136;2022-10-15T07:44:18;95705.34;;;28.32;25.99
70141;BME280;57508;43.086;0.136;2022-10-15T07:46:45;95706.53;;;29.00;25.20
70141;BME280;57508;43.086;0.136;2022-10-15T07:49:11;95708.72;;;29.68;25.72
70141;BME280;57508;43.086;0.136;2022-10-15T07:51:36;95715.31;;;29.91;25.61
70141;BME280;57508;43.086;0.136;2022-10-15T07:54:02;95713.19;;;29.54;24.78
70141;BME280;57508;43.086;0.136;2022-10-15T07:56:27;95714.44;;;30.86;23.08
70141;BME280;57508;43.086;0.136;2022-10-15T07:58:52;95700.28;;;30.71;23.01
70141;BME280;57508;43.086;0.136;2022-10-15T08:01:19;95699.03;;;31.13;22.05
70141;BME280;57508;43.086;0.136;2022-10-15T08:03:45;95709.28;;;31.46;22.23
70141;BME280;57508;43.086;0.136;2022-10-15T08:06:10;95704.16;;;31.81;21.76
70141;BME280;57508;43.086;0.136;2022-10-15T08:08:36;95707.16;;;31.53;21.17
70141;BME280;57508;43.086;0.136;2022-10-15T08:11:10;95716.00;;;31.91;21.40
70141;BME280;57508;43.086;0.136;2022-10-15T08:13:36;95713.16;;;33.00;20.85
70141;BME280;57508;43.086;0.136;2022-10-15T08:16:07;95719.75;;;33.55;22.96
70141;BME280;57508;43.086;0.136;2022-10-15T08:18:33;95726.09;;;33.52;22.97
70141;BME280;57508;43.086;0.136;2022-10-15T08:20:59;95719.88;;;33.77;20.13
70141;BME280;57508;43.086;0.136;2022-10-15T08:23:25;95723.25;;;33.81;20.75
70141;BME280;57508;43.086;0.136;2022-10-15T08:25:51;95715.22;;;35.34;19.09
70141;BME280;57508;43.086;0.136;2022-10-15T08:28:16;95723.03;;;35.45;19.00
70141;BME280;57508;43.086;0.136;2022-10-15T08:30:42;95725.56;;;35.30;19.41
70141;BME280;57508;43.086;0.136;2022-10-15T08:33:07;95719.66;;;35.82;20.09
70141;BME280;57508;43.086;0.136;2022-10-15T08:35:33;95726.41;;;36.38;18.81
70141;BME280;57508;43.086;0.136;2022-10-15T08:38:04;95717.72;;;36.48;18.30
70141;BME280;57508;43.086;0.136;2022-10-15T08:40:29;95725.16;;;37.38;18.51
70141;BME280;57508;43.086;0.136;2022-10-15T08:42:55;95724.78;;;37.55;18.29
70141;BME280;57508;43.086;0.136;2022-10-15T08:45:29;95720.44;;;37.63;18.66
70141;BME280;57508;43.086;0.136;2022-10-15T08:48:01;95720.34;;;38.06;17.75
70141;BME280;57508;43.086;0.136;2022-10-15T08:50:45;95714.84;;;38.46;16.38
70141;BME280;57508;43.086;0.136;2022-10-15T08:53:21;95715.22;;;38.54;16.90
70141;BME280;57508;43.086;0.136;2022-10-15T08:55:49;95708.81;;;38.32;16.62
70141;BME280;57508;43.086;0.136;2022-10-15T08:58:34;95705.94;;;38.81;16.08
70141;BME280;57508;43.086;0.136;2022-10-15T09:06:40;95706.03;;;39.53;17.76
70141;BME280;57508;43.086;0.136;2022-10-15T09:09:22;95712.19;;;38.97;16.91
70141;BME280;57508;43.086;0.136;2022-10-15T09:12:17;95720.78;;;38.99;17.98
70141;BME280;57508;43.086;0.136;2022-10-15T09:14:45;95710.41;;;39.60;16.03
70141;BME280;57508;43.086;0.136;2022-10-15T09:17:23;95722.53;;;40.25;15.42
70141;BME280;57508;43.086;0.136;2022-10-15T09:19:53;95719.97;;;41.33;14.86
70141;BME280;57508;43.086;0.136;2022-10-15T09:22:23;95723.63;;;42.00;16.31
70141;BME280;57508;43.086;0.136;2022-10-15T09:24:50;95718.66;;;41.61;14.29
70141;BME280;57508;43.086;0.136;2022-10-15T09:27:35;95724.53;;;42.35;14.34
70141;BME280;57508;43.086;0.136;2022-10-15T09:32:55;95718.78;;;43.36;13.88
70141;BME280;57508;43.086;0.136;2022-10-15T09:44:16;95720.75;;;44.77;15.02
70141;BME280;57508;43.086;0.136;2022-10-15T09:46:46;95713.91;;;44.78;13.78
70141;BME280;57508;43.086;0.136;2022-10-15T09:49:15;95717.09;;;44.94;14.23
70141;BME280;57508;43.086;0.136;2022-10-15T09:52:07;95712.00;;;44.14;14.61
70141;BME280;57508;43.086;0.136;2022-10-15T09:54:57;95713.84;;;43.88;14.84
70141;BME280;57508;43.086;0.136;2022-10-15T09:57:27;95719.78;;;43.50;14.85
70141;BME280;57508;43.086;0.136;2022-10-15T09:59:57;95714.38;;;43.81;12.98
70141;BME280;57508;43.086;0.136;2022-10-15T10:02:26;95722.25;;;42.34;15.10
70141;BME280;57508;43.086;0.136;2022-10-15T10:04:52;95724.59;;;42.81;14.85
70141;BME280;57508;43.086;0.136;2022-10-15T10:07:44;95726.31;;;42.50;14.44
70141;BME280;57508;43.086;0.136;2022-10-15T10:10:24;95720.84;;;44.12;14.37
70141;BME280;57508;43.086;0.136;2022-10-15T10:12:51;95726.72;;;45.24;13.52
70141;BME280;57508;43.086;0.136;2022-10-15T10:15:40;95725.66;;;45.27;12.42
70141;BME280;57508;43.086;0.136;2022-10-15T10:18:17;95723.88;;;44.99;12.88
70141;BME280;57508;43.086;0.136;2022-10-15T10:20:55;95721.59;;;46.03;13.14
70141;BME280;57508;43.086;0.136;2022-10-15T10:23:28;95723.69;;;46.54;11.63
70141;BME280;57508;43.086;0.136;2022-10-15T10:25:57;95717.06;;;46.71;11.35
70141;BME280;57508;43.086;0.136;2022-10-15T10:28:31;95715.47;;;46.24;11.91
70141;BME280;57508;43.086;0.136;2022-10-15T10:36:07;95723.00;;;45.40;13.40
70141;BME280;57508;43.086;0.136;2022-10-15T10:42:38;95719.56;;;47.08;11.56
70141;BME280;57508;43.086;0.136;2022-10-15T10:44:45;95726.50;;;46.87;11.11
70141;BME280;57508;43.086;0.136;2022-10-15T10:49:55;95718.66;;;46.53;9.77
70141;BME280;57508;43.086;0.136;2022-10-15T10:52:29;95730.09;;;44.80;10.97
70141;BME280;57508;43.086;0.136;2022-10-15T10:55:19;95723.81;;;45.85;10.52
70141;BME280;57508;43.086;0.136;2022-10-15T10:57:55;95712.63;;;46.10;10.70
70141;BME280;57508;43.086;0.136;2022-10-15T11:00:41;95709.66;;;45.33;11.23
70141;BME280;57508;43.086;0.136;2022-10-15T11:03:35;95711.63;;;44.77;11.10
70141;BME280;57508;43.086;0.136;2022-10-15T11:06:44;95709.97;;;44.93;12.67
70141;BME280;57508;43.086;0.136;2022-10-15T11:25:45;95685.44;;;46.11;10.65
70141;BME280;57508;43.086;0.136;2022-10-15T11:30:58;95673.72;;;44.26;12.22
70141;BME280;57508;43.086;0.136;2022-10-15T11:46:41;95661.16;;;43.37;12.25
70141;BME280;57508;43.086;0.136;2022-10-15T11:54:39;95665.53;;;47.59;10.48
70141;BME280;57508;43.086;0.136;2022-10-15T11:57:11;95643.03;;;47.24;10.23
70141;BME280;57508;43.086;0.136;2022-10-15T11:59:50;95641.59;;;47.04;10.42
70141;BME280;57508;43.086;0.136;2022-10-15T12:02:34;95641.63;;;46.71;9.76
70141;BME280;57508;43.086;0.136;2022-10-15T12:05:53;95631.03;;;46.83;10.58
70141;BME280;57508;43.086;0.136;2022-10-15T12:07:54;95631.16;;;48.20;9.80
70141;BME280;57508;43.086;0.136;2022-10-15T12:12:53;95618.91;;;46.80;10.64
70141;BME280;57508;43.086;0.136;2022-10-15T12:15:34;95619.06;;;47.15;10.37
70141;BME280;57508;43.086;0.136;2022-10-15T12:20:45;95610.00;;;48.33;9.34
70141;BME280;57508;43.086;0.136;2022-10-15T12:26:31;95594.44;;;49.70;8.86
70141;BME280;57508;43.086;0.136;2022-10-15T12:29:03;95594.78;;;48.92;9.05
70141;BME280;57508;43.086;0.136;2022-10-15T12:32:01;95586.97;;;49.73;9.20
70141;BME280;57508;43.086;0.136;2022-10-15T12:34:40;95588.03;;;49.17;8.61
70141;BME280;57508;43.086;0.136;2022-10-15T12:37:15;95591.03;;;48.90;9.72
70141;BME280;57508;43.086;0.136;2022-10-15T12:39:42;95582.47;;;48.66;9.07
70141;BME280;57508;43.086;0.136;2022-10-15T12:42:35;95577.28;;;49.37;9.07
70141;BME280;57508;43.086;0.136;2022-10-15T12:45:07;95573.19;;;49.90;9.40
70141;BME280;57508;43.086;0.136;2022-10-15T12:55:37;95562.78;;;48.58;9.68
70141;BME280;57508;43.086;0.136;2022-10-15T13:00:56;95547.81;;;49.14;9.23
70141;BME280;57508;43.086;0.136;2022-10-15T13:03:35;95547.22;;;48.79;9.62
70141;BME280;57508;43.086;0.136;2022-10-15T13:14:12;95527.00;;;49.47;8.93
70141;BME280;57508;43.086;0.136;2022-10-15T13:16:46;95516.50;;;50.62;8.45
70141;BME280;57508;43.086;0.136;2022-10-15T13:19:37;95514.09;;;50.27;8.46
70141;BME280;57508;43.086;0.136;2022-10-15T13:22:05;95509.59;;;50.48;8.43
70141;BME280;57508;43.086;0.136;2022-10-15T13:24:42;95488.47;;;49.39;9.09
70141;BME280;57508;43.086;0.136;2022-10-15T13:27:22;95500.66;;;49.50;9.90
70141;BME280;57508;43.086;0.136;2022-10-15T13:32:24;95489.16;;;49.92;9.86
70141;BME280;57508;43.086;0.136;2022-10-15T13:34:50;95480.69;;;48.42;10.73
70141;BME280;57508;43.086;0.136;2022-10-15T13:37:22;95485.19;;;48.45;11.25
70141;BME280;57508;43.086;0.136;2022-10-15T13:39:50;95477.34;;;47.80;10.76
70141;BME280;57508;43.086;0.136;2022-10-15T13:42:19;95474.41;;;47.86;10.50
70141;BME280;57508;43.086;0.136;2022-10-15T13:47:34;95472.16;;;47.84;11.16
70141;BME280;57508;43.086;0.136;2022-10-15T13:53:09;95466.72;;;48.00;11.28
70141;BME280;57508;43.086;0.136;2022-10-15T13:55:38;95468.09;;;47.02;12.27
70141;BME280;57508;43.086;0.136;2022-10-15T13:58:33;95462.53;;;46.88;12.20
70141;BME280;57508;43.086;0.136;2022-10-15T14:03:31;95456.69;;;47.00;11.56
70141;BME280;57508;43.086;0.136;2022-10-15T14:06:16;95465.31;;;46.48;12.20
70141;BME280;57508;43.086;0.136;2022-10-15T14:08:43;95459.25;;;47.46;11.54
70141;BME280;57508;43.086;0.136;2022-10-15T14:11:10;95454.81;;;46.81;12.07
70141;BME280;57508;43.086;0.136;2022-10-15T14:13:46;95455.78;;;47.32;11.10
70141;BME280;57508;43.086;0.136;2022-10-15T14:18:52;95449.78;;;47.28;10.94
70141;BME280;57508;43.086;0.136;2022-10-15T14:21:22;95448.09;;;46.98;11.21
70141;BME280;57508;43.086;0.136;2022-10-15T14:24:05;95441.03;;;47.66;10.99
70141;BME280;57508;43.086;0.136;2022-10-15T14:26:32;95442.66;;;47.83;10.77
70141;BME280;57508;43.086;0.136;2022-10-15T14:28:58;95447.13;;;47.78;11.44
70141;BME280;57508;43.086;0.136;2022-10-15T14:31:29;95447.75;;;48.64;11.46
70141;BME280;57508;43.086;0.136;2022-10-15T14:33:55;95443.38;;;46.92;12.47
70141;BME280;57508;43.086;0.136;2022-10-15T14:36:29;95437.47;;;46.42;12.33
70141;BME280;57508;43.086;0.136;2022-10-15T14:39:17;95442.75;;;47.91;11.47
70141;BME280;57508;43.086;0.136;2022-10-15T14:42:27;95439.41;;;47.36;11.72
70141;BME280;57508;43.086;0.136;2022-10-15T14:44:55;95437.06;;;48.26;11.59
70141;BME280;57508;43.086;0.136;2022-10-15T14:47:29;95444.25;;;46.47;12.29
70141;BME280;57508;43.086;0.136;2022-10-15T14:49:59;95443.78;;;46.29;12.84
70141;BME280;57508;43.086;0.136;2022-10-15T14:52:26;95446.16;;;46.25;13.11
70141;BME280;57508;43.086;0.136;2022-10-15T14:57:33;95442.88;;;45.93;12.72
70141;BME280;57508;43.086;0.136;2022-10-15T14:59:59;95440.50;;;46.58;12.24
70141;BME280;57508;43.086;0.136;2022-10-15T15:02:27;95434.38;;;46.73;12.33
70141;BME280;57508;43.086;0.136;2022-10-15T15:07:42;95437.16;;;46.86;12.26
70141;BME280;57508;43.086;0.136;2022-10-15T15:10:09;95443.47;;;45.86;13.20
70141;BME280;57508;43.086;0.136;2022-10-15T15:12:37;95446.34;;;46.27;13.04
70141;BME280;57508;43.086;0.136;2022-10-15T15:15:03;95440.66;;;45.73;12.83
70141;BME280;57508;43.086;0.136;2022-10-15T15:17:30;95443.44;;;45.73;12.41
70141;BME280;57508;43.086;0.136;2022-10-15T15:19:56;95445.50;;;44.95;13.57
70141;BME280;57508;43.086;0.136;2022-10-15T15:24:50;95447.38;;;45.06;13.35
70141;BME280;57508;43.086;0.136;2022-10-15T15:27:27;95450.84;;;44.68;13.72
70141;BME280;57508;43.086;0.136;2022-10-15T15:29:54;95455.00;;;45.05;13.91
70141;BME280;57508;43.086;0.136;2022-10-15T15:32:21;95449.53;;;44.50;13.86
70141;BME280;57508;43.086;0.136;2022-10-15T15:34:47;95454.59;;;44.51;14.38
70141;BME280;57508;43.086;0.136;2022-10-15T15:37:18;95453.41;;;44.66;13.35
70141;BME280;57508;43.086;0.136;2022-10-15T15:39:44;95460.22;;;44.71;14.15
70141;BME280;57508;43.086;0.136;2022-10-15T15:42:14;95458.19;;;44.15;14.91
70141;BME280;57508;43.086;0.136;2022-10-15T15:44:40;95457.53;;;43.25;15.68
70141;BME280;57508;43.086;0.136;2022-10-15T15:47:07;95454.63;;;43.84;14.96
70141;BME280;57508;43.086;0.136;2022-10-15T15:49:33;95456.69;;;44.45;14.92
70141;BME280;57508;43.086;0.136;2022-10-15T15:51:59;95452.59;;;42.95;15.96
70141;BME280;57508;43.086;0.136;2022-10-15T15:54:25;95459.81;;;41.75;17.11
70141;BME280;57508;43.086;0.136;2022-10-15T15:56:50;95469.09;;;40.83;17.24
70141;BME280;57508;43.086;0.136;2022-10-15T15:59:16;95453.72;;;40.44;18.53
70141;BME280;57508;43.086;0.136;2022-10-15T16:01:44;95463.22;;;39.67;19.29
70141;BME280;57508;43.086;0.136;2022-10-15T16:04:10;95456.84;;;38.56;19.91
70141;BME280;57508;43.086;0.136;2022-10-15T16:06:37;95459.91;;;38.22;19.54
70141;BME280;57508;43.086;0.136;2022-10-15T16:09:03;95465.00;;;37.84;20.78
70141;BME280;57508;43.086;0.136;2022-10-15T16:11:30;95466.97;;;37.14;21.38
70141;BME280;57508;43.086;0.136;2022-10-15T16:13:56;95476.81;;;36.81;21.12
70141;BME280;57508;43.086;0.136;2022-10-15T16:16:22;95473.94;;;36.42;22.01
70141;BME280;57508;43.086;0.136;2022-10-15T16:18:49;95473.75;;;36.02;22.87
70141;BME280;57508;43.086;0.136;2022-10-15T16:21:20;95476.84;;;35.67;23.56
70141;BME280;57508;43.086;0.136;2022-10-15T16:23:46;95482.97;;;35.43;23.92
70141;BME280;57508;43.086;0.136;2022-10-15T16:26:12;95481.72;;;35.06;24.39
70141;BME280;57508;43.086;0.136;2022-10-15T16:28:37;95480.78;;;34.72;24.18
70141;BME280;57508;43.086;0.136;2022-10-15T16:31:22;95483.22;;;34.38;25.88
70141;BME280;57508;43.086;0.136;2022-10-15T16:33:48;95479.56;;;34.09;25.75
70141;BME280;57508;43.086;0.136;2022-10-15T16:36:14;95483.09;;;33.88;25.78
70141;BME280;57508;43.086;0.136;2022-10-15T16:38:41;95479.50;;;33.55;26.69
70141;BME280;57508;43.086;0.136;2022-10-15T16:41:08;95477.56;;;33.20;27.43
70141;BME280;57508;43.086;0.136;2022-10-15T16:43:34;95484.50;;;32.99;27.96
70141;BME280;57508;43.086;0.136;2022-10-15T16:46:00;95485.81;;;32.94;27.28
70141;BME280;57508;43.086;0.136;2022-10-15T16:48:30;95488.38;;;32.63;28.28
70141;BME280;57508;43.086;0.136;2022-10-15T16:53:28;95484.00;;;32.39;28.21
70141;BME280;57508;43.086;0.136;2022-10-15T16:55:59;95477.09;;;32.22;29.25
70141;BME280;57508;43.086;0.136;2022-10-15T16:58:25;95488.13;;;31.75;30.91
70141;BME280;57508;43.086;0.136;2022-10-15T17:00:50;95486.81;;;31.37;31.74
70141;BME280;57508;43.086;0.136;2022-10-15T17:03:16;95496.69;;;31.48;31.47
70141;BME280;57508;43.086;0.136;2022-10-15T17:05:41;95498.38;;;31.41;31.32
70141;BME280;57508;43.086;0.136;2022-10-15T17:08:06;95502.94;;;30.98;32.08
70141;BME280;57508;43.086;0.136;2022-10-15T17:10:32;95507.78;;;30.74;32.75
70141;BME280;57508;43.086;0.136;2022-10-15T17:12:57;95499.50;;;30.61;32.95
70141;BME280;57508;43.086;0.136;2022-10-15T17:15:23;95502.41;;;30.70;31.83
70141;BME280;57508;43.086;0.136;2022-10-15T17:17:49;95506.06;;;30.63;32.80
70141;BME280;57508;43.086;0.136;2022-10-15T17:20:14;95508.34;;;30.48;32.05
70141;BME280;57508;43.086;0.136;2022-10-15T17:22:40;95507.03;;;30.36;33.58
70141;BME280;57508;43.086;0.136;2022-10-15T17:25:05;95512.75;;;30.25;32.33
70141;BME280;57508;43.086;0.136;2022-10-15T17:27:31;95519.09;;;29.98;33.55
70141;BME280;57508;43.086;0.136;2022-10-15T17:29:58;95514.63;;;29.67;34.27
70141;BME280;57508;43.086;0.136;2022-10-15T17:32:23;95524.72;;;29.23;35.14
70141;BME280;57508;43.086;0.136;2022-10-15T17:34:49;95519.59;;;28.77;36.13
70141;BME280;57508;43.086;0.136;2022-10-15T17:37:15;95528.16;;;28.75;36.01
70141;BME280;57508;43.086;0.136;2022-10-15T17:39:40;95523.59;;;29.20;35.33
70141;BME280;57508;43.086;0.136;2022-10-15T17:42:05;95525.56;;;29.20;35.41
70141;BME280;57508;43.086;0.136;2022-10-15T17:44:31;95532.75;;;29.06;35.18
70141;BME280;57508;43.086;0.136;2022-10-15T17:46:56;95527.22;;;28.86;35.27
70141;BME280;57508;43.086;0.136;2022-10-15T17:49:22;95533.59;;;28.75;36.12
70141;BME280;57508;43.086;0.136;2022-10-15T17:51:47;95537.75;;;28.56;36.20
70141;BME280;57508;43.086;0.136;2022-10-15T17:54:12;95533.41;;;28.62;36.78
70141;BME280;57508;43.086;0.136;2022-10-15T17:56:38;95541.25;;;28.25;36.54
70141;BME280;57508;43.086;0.136;2022-10-15T17:59:05;95539.47;;;28.43;36.32
70141;BME280;57508;43.086;0.136;2022-10-15T18:01:33;95546.59;;;28.33;36.59
70141;BME280;57508;43.086;0.136;2022-10-15T18:03:59;95543.63;;;28.20;37.00
70141;BME280;57508;43.086;0.136;2022-10-15T18:06:25;95553.84;;;28.08;37.00
70141;BME280;57508;43.086;0.136;2022-10-15T18:08:51;95551.59;;;27.61;38.04
70141;BME280;57508;43.086;0.136;2022-10-15T18:11:23;95545.91;;;28.21;36.25
70141;BME280;57508;43.086;0.136;2022-10-15T18:13:49;95549.63;;;28.03;37.04
70141;BME280;57508;43.086;0.136;2022-10-15T18:16:16;95549.44;;;27.87;36.76
70141;BME280;57508;43.086;0.136;2022-10-15T18:18:42;95552.44;;;27.58;37.58
70141;BME280;57508;43.086;0.136;2022-10-15T18:21:09;95553.66;;;27.49;38.20
70141;BME280;57508;43.086;0.136;2022-10-15T18:23:36;95553.31;;;27.47;37.93
70141;BME280;57508;43.086;0.136;2022-10-15T18:28:30;95561.88;;;27.42;38.20
70141;BME280;57508;43.086;0.136;2022-10-15T18:30:56;95566.44;;;27.03;39.11
70141;BME280;57508;43.086;0.136;2022-10-15T18:33:22;95566.78;;;27.09;38.31
70141;BME280;57508;43.086;0.136;2022-10-15T18:35:47;95566.63;;;27.31;38.07
70141;BME280;57508;43.086;0.136;2022-10-15T18:38:15;95573.91;;;27.37;37.64
70141;BME280;57508;43.086;0.136;2022-10-15T18:40:41;95570.94;;;27.24;38.02
70141;BME280;57508;43.086;0.136;2022-10-15T18:43:06;95566.34;;;27.14;38.09
70141;BME280;57508;43.086;0.136;2022-10-15T18:45:34;95557.47;;;27.10;38.02
70141;BME280;57508;43.086;0.136;2022-10-15T18:48:00;95565.22;;;26.47;40.24
70141;BME280;57508;43.086;0.136;2022-10-15T18:50:25;95551.47;;;26.02;40.55
70141;BME280;57508;43.086;0.136;2022-10-15T18:52:51;95565.00;;;25.98;41.29
70141;BME280;57508;43.086;0.136;2022-10-15T18:55:17;95566.84;;;26.23;40.62
70141;BME280;57508;43.086;0.136;2022-10-15T18:57:42;95563.34;;;26.26;39.92
70141;BME280;57508;43.086;0.136;2022-10-15T19:00:08;95560.19;;;26.42;39.64
70141;BME280;57508;43.086;0.136;2022-10-15T19:02:34;95566.84;;;26.34;39.22
70141;BME280;57508;43.086;0.136;2022-10-15T19:05:00;95568.47;;;26.06;39.95
70141;BME280;57508;43.086;0.136;2022-10-15T19:07:25;95559.59;;;25.94;39.87
70141;BME280;57508;43.086;0.136;2022-10-15T19:09:51;95551.47;;;26.02;39.23
70141;BME280;57508;43.086;0.136;2022-10-15T19:12:16;95558.38;;;26.10;39.09
70141;BME280;57508;43.086;0.136;2022-10-15T19:14:43;95556.06;;;26.12;39.27
70141;BME280;57508;43.086;0.136;2022-10-15T19:17:09;95556.47;;;26.07;40.05
70141;BME280;57508;43.086;0.136;2022-10-15T19:19:34;95555.00;;;25.55;40.64
70141;BME280;57508;43.086;0.136;2022-10-15T19:22:00;95557.34;;;25.45;41.36
70141;BME280;57508;43.086;0.136;2022-10-15T19:24:26;95557.75;;;24.89;43.02
70141;BME280;57508;43.086;0.136;2022-10-15T19:26:51;95551.53;;;25.50;41.01
70141;BME280;57508;43.086;0.136;2022-10-15T19:29:18;95548.44;;;25.78;40.59
70141;BME280;57508;43.086;0.136;2022-10-15T19:31:45;95546.53;;;25.60;40.70
70141;BME280;57508;43.086;0.136;2022-10-15T19:34:11;95536.50;;;25.24;41.54
70141;BME280;57508;43.086;0.136;2022-10-15T19:36:40;95536.47;;;25.49;40.91
70141;BME280;57508;43.086;0.136;2022-10-15T19:39:09;95546.94;;;25.00;42.41
70141;BME280;57508;43.086;0.136;2022-10-15T19:41:39;95534.59;;;25.35;41.39
70141;BME280;57508;43.086;0.136;2022-10-15T19:44:06;95542.66;;;25.54;41.01
70141;BME280;57508;43.086;0.136;2022-10-15T19:46:33;95540.38;;;25.30;40.94
70141;BME280;57508;43.086;0.136;2022-10-15T19:48:59;95539.94;;;25.54;40.30
70141;BME280;57508;43.086;0.136;2022-10-15T19:51:24;95546.91;;;25.58;40.01
70141;BME280;57508;43.086;0.136;2022-10-15T19:53:51;95550.41;;;25.22;41.29
70141;BME280;57508;43.086;0.136;2022-10-15T19:56:17;95543.44;;;25.36;40.12
70141;BME280;57508;43.086;0.136;2022-10-15T19:58:42;95539.56;;;25.37;40.99
70141;BME280;57508;43.086;0.136;2022-10-15T20:01:09;95548.09;;;25.39;41.07
70141;BME280;57508;43.086;0.136;2022-10-15T20:03:34;95536.50;;;25.24;40.44
70141;BME280;57508;43.086;0.136;2022-10-15T20:06:00;95539.59;;;24.90;40.31
70141;BME280;57508;43.086;0.136;2022-10-15T20:08:27;95536.44;;;24.77;40.64
70141;BME280;57508;43.086;0.136;2022-10-15T20:10:53;95537.28;;;25.17;40.70
70141;BME280;57508;43.086;0.136;2022-10-15T20:13:20;95535.72;;;25.34;40.41
70141;BME280;57508;43.086;0.136;2022-10-15T20:15:48;95526.84;;;25.34;39.27
70141;BME280;57508;43.086;0.136;2022-10-15T20:18:14;95531.09;;;25.35;39.32
70141;BME280;57508;43.086;0.136;2022-10-15T20:20:42;95530.31;;;25.20;39.70
70141;BME280;57508;43.086;0.136;2022-10-15T20:23:08;95533.03;;;24.98;41.05
70141;BME280;57508;43.086;0.136;2022-10-15T20:25:37;95533.44;;;24.93;40.74
70141;BME280;57508;43.086;0.136;2022-10-15T20:28:02;95536.50;;;24.88;41.24
70141;BME280;57508;43.086;0.136;2022-10-15T20:30:28;95528.34;;;24.77;41.55